createdAt,value
2018-10-09T00:01:01.451Z,1021.68
2018-10-09T00:02:11.545Z,1021.69
2018-10-09T00:03:20.836Z,1021.7
2018-10-09T00:04:30.928Z,1021.7
2018-10-09T00:05:41.017Z,1021.65
2018-10-09T00:06:50.575Z,1021.7
2018-10-09T00:08:00.405Z,1021.71
2018-10-09T00:09:09.688Z,1021.73
2018-10-09T00:10:19.127Z,1021.75
2018-10-09T00:11:28.679Z,1021.78
2018-10-09T00:12:38.232Z,1021.81
2018-10-09T00:13:47.783Z,1021.86
2018-10-09T00:14:57.335Z,1021.9
2018-10-09T00:16:06.361Z,1021.87
2018-10-09T00:17:16.189Z,1021.91
2018-10-09T00:18:25.206Z,1021.85
2018-10-09T00:19:35.023Z,1021.84
2018-10-09T00:20:44.577Z,1021.86
2018-10-09T00:21:54.664Z,1021.92
2018-10-09T00:23:04.496Z,1021.95
2018-10-09T00:24:14.052Z,1021.89
2018-10-09T00:25:23.875Z,1021.85
2018-10-09T00:26:33.428Z,1021.9
2018-10-09T00:27:42.984Z,1021.9
2018-10-09T00:28:52.534Z,1021.92
2018-10-09T00:30:02.659Z,1021.91
2018-10-09T00:31:11.946Z,1021.93
2018-10-09T00:32:21.768Z,1021.84
2018-10-09T00:33:31.641Z,1021.84
2018-10-09T00:34:41.737Z,1021.84
2018-10-09T00:35:51.561Z,1021.83
2018-10-09T00:37:01.114Z,1021.84
2018-10-09T00:38:11.208Z,1021.85
2018-10-09T00:39:21.298Z,1021.85
2018-10-09T00:40:30.859Z,1021.83
2018-10-09T00:41:40.677Z,1021.89
2018-10-09T00:42:50.235Z,1021.83
2018-10-09T00:43:59.788Z,1021.83
2018-10-09T00:45:09.346Z,1021.85
2018-10-09T00:46:18.634Z,1021.82
2018-10-09T00:47:28.787Z,1021.76
2018-10-09T00:48:38.885Z,1021.77
2018-10-09T00:49:48.983Z,1021.79
2018-10-09T00:50:59.076Z,1021.79
2018-10-09T00:52:08.627Z,1021.8
2018-10-09T00:53:18.180Z,1021.81
2018-10-09T00:54:28.005Z,1021.83
2018-10-09T00:55:37.576Z,1021.79
2018-10-09T00:56:47.132Z,1021.78
2018-10-09T00:57:56.419Z,1021.77
2018-10-09T00:59:06.242Z,1021.72
2018-10-09T01:00:16.062Z,1021.73
2018-10-09T01:01:25.890Z,1021.7
2018-10-09T01:02:35.444Z,1021.68
2018-10-09T01:03:45.269Z,1021.66
2018-10-09T01:04:55.367Z,1021.68
2018-10-09T01:06:05.202Z,1021.7
2018-10-09T01:07:15.300Z,1021.74
2018-10-09T01:08:24.856Z,1021.71
2018-10-09T01:09:34.409Z,1021.71
2018-10-09T01:10:44.524Z,1021.73
2018-10-09T01:11:54.360Z,1021.76
2018-10-09T01:13:03.915Z,1021.74
2018-10-09T01:14:14.008Z,1021.72
2018-10-09T01:15:23.346Z,1021.74
2018-10-09T01:16:33.172Z,1021.73
2018-10-09T01:17:43.267Z,1021.72
2018-10-09T01:18:53.096Z,1021.77
2018-10-09T01:20:02.971Z,1021.71
2018-10-09T01:21:12.793Z,1021.77
2018-10-09T01:22:22.347Z,1021.78
2018-10-09T01:23:31.905Z,1021.75
2018-10-09T01:24:41.730Z,1021.78
2018-10-09T01:25:51.562Z,1021.77
2018-10-09T01:27:01.395Z,1021.77
2018-10-09T01:28:11.237Z,1021.74
2018-10-09T01:29:21.065Z,1021.73
2018-10-09T01:30:30.076Z,1021.69
2018-10-09T01:31:39.946Z,1021.67
2018-10-09T01:32:49.770Z,1021.61
2018-10-09T01:33:59.872Z,1021.65
2018-10-09T01:35:09.449Z,1021.62
2018-10-09T01:36:19.272Z,1021.65
2018-10-09T01:37:29.108Z,1021.64
2018-10-09T01:38:38.171Z,1021.63
2018-10-09T01:39:47.720Z,1021.66
2018-10-09T01:40:57.816Z,1021.71
2018-10-09T01:42:07.380Z,1021.66
2018-10-09T01:43:17.264Z,1021.65
2018-10-09T01:44:26.550Z,1021.67
2018-10-09T01:45:36.117Z,1021.65
2018-10-09T01:46:45.673Z,1021.72
2018-10-09T01:47:55.232Z,1021.72
2018-10-09T01:49:04.790Z,1021.66
2018-10-09T01:50:14.888Z,1021.65
2018-10-09T01:51:24.979Z,1021.61
2018-10-09T01:52:35.083Z,1021.64
2018-10-09T01:53:45.169Z,1021.63
2018-10-09T01:54:55.273Z,1021.66
2018-10-09T01:56:05.100Z,1021.65
2018-10-09T01:57:14.653Z,1021.64
2018-10-09T01:58:24.473Z,1021.64
2018-10-09T01:59:34.565Z,1021.6
2018-10-09T02:00:44.118Z,1021.63
2018-10-09T02:01:54.207Z,1021.66
2018-10-09T02:03:04.306Z,1021.65
2018-10-09T02:04:14.132Z,1021.63
2018-10-09T02:05:24.231Z,1021.55
2018-10-09T02:06:34.052Z,1021.54
2018-10-09T02:07:43.876Z,1021.47
2018-10-09T02:08:53.698Z,1021.48
2018-10-09T02:10:03.793Z,1021.42
2018-10-09T02:11:13.618Z,1021.44
2018-10-09T02:12:23.170Z,1021.43
2018-10-09T02:13:32.993Z,1021.43
2018-10-09T02:14:42.543Z,1021.43
2018-10-09T02:15:52.374Z,1021.39
2018-10-09T02:17:02.199Z,1021.35
2018-10-09T02:18:11.755Z,1021.35
2018-10-09T02:19:21.855Z,1021.29
2018-10-09T02:20:31.417Z,1021.29
2018-10-09T02:21:41.508Z,1021.26
2018-10-09T02:22:51.335Z,1021.27
2018-10-09T02:24:01.161Z,1021.23
2018-10-09T02:25:10.181Z,1021.28
2018-10-09T02:26:19.739Z,1021.25
2018-10-09T02:27:29.302Z,1021.23
2018-10-09T02:28:38.857Z,1021.25
2018-10-09T02:29:48.412Z,1021.26
2018-10-09T02:30:58.506Z,1021.25
2018-10-09T02:32:08.337Z,1021.21
2018-10-09T02:33:17.891Z,1021.13
2018-10-09T02:34:27.844Z,1021.11
2018-10-09T02:35:37.687Z,1021.08
2018-10-09T02:36:47.513Z,1021.11
2018-10-09T02:37:57.342Z,1021.07
2018-10-09T02:39:07.167Z,1021.07
2018-10-09T02:40:16.722Z,1021.05
2018-10-09T02:41:26.352Z,1021
2018-10-09T02:42:36.188Z,1021
2018-10-09T02:43:45.742Z,1020.98
2018-10-09T02:44:55.300Z,1020.97
2018-10-09T02:46:04.580Z,1020.99
2018-10-09T02:47:14.401Z,1021
2018-10-09T02:48:24.509Z,1021.05
2018-10-09T02:49:34.353Z,1021
2018-10-09T02:50:44.177Z,1021.07
2018-10-09T02:51:54.000Z,1021.07
2018-10-09T02:53:04.090Z,1021.1
2018-10-09T02:54:14.205Z,1021.16
2018-10-09T02:55:24.027Z,1021.23
2018-10-09T02:56:34.132Z,1021.32
2018-10-09T02:57:43.961Z,1021.29
2018-10-09T02:58:54.061Z,1021.32
2018-10-09T03:00:03.885Z,1021.37
2018-10-09T03:01:13.725Z,1021.34
2018-10-09T03:02:23.827Z,1021.36
2018-10-09T03:03:33.663Z,1021.37
2018-10-09T03:04:43.761Z,1021.33
2018-10-09T03:05:53.869Z,1021.38
2018-10-09T03:07:03.689Z,1021.38
2018-10-09T03:08:13.517Z,1021.39
2018-10-09T03:09:23.657Z,1021.41
2018-10-09T03:10:33.488Z,1021.35
2018-10-09T03:11:43.311Z,1021.35
2018-10-09T03:12:52.871Z,1021.32
2018-10-09T03:14:02.698Z,1021.24
2018-10-09T03:15:12.522Z,1021.27
2018-10-09T03:16:22.344Z,1021.23
2018-10-09T03:17:31.901Z,1021.2
2018-10-09T03:18:41.457Z,1021.18
2018-10-09T03:19:51.292Z,1021.14
2018-10-09T03:21:01.382Z,1021.08
2018-10-09T03:22:10.985Z,1021.07
2018-10-09T03:23:20.821Z,1021.08
2018-10-09T03:24:30.375Z,1021.07
2018-10-09T03:25:39.930Z,1021.11
2018-10-09T03:26:49.753Z,1021.14
2018-10-09T03:27:59.038Z,1021.11
2018-10-09T03:29:08.324Z,1021.12
2018-10-09T03:30:18.424Z,1021.16
2018-10-09T03:31:27.990Z,1021.12
2018-10-09T03:32:37.831Z,1021.2
2018-10-09T03:33:47.112Z,1021.16
2018-10-09T03:34:56.407Z,1021.22
2018-10-09T03:36:05.963Z,1021.18
2018-10-09T03:37:15.528Z,1021.16
2018-10-09T03:38:25.621Z,1021.16
2018-10-09T03:39:35.228Z,1021.15
2018-10-09T03:40:45.052Z,1021.21
2018-10-09T03:41:54.871Z,1021.19
2018-10-09T03:43:04.417Z,1021.16
2018-10-09T03:44:13.971Z,1021.21
2018-10-09T03:45:24.065Z,1021.27
2018-10-09T03:46:33.945Z,1021.29
2018-10-09T03:47:43.773Z,1021.25
2018-10-09T03:48:53.594Z,1021.3
2018-10-09T03:50:03.417Z,1021.28
2018-10-09T03:51:12.749Z,1021.26
2018-10-09T03:52:22.314Z,1021.32
2018-10-09T03:53:32.140Z,1021.31
2018-10-09T03:54:41.694Z,1021.33
2018-10-09T03:55:51.808Z,1021.35
2018-10-09T03:57:01.357Z,1021.38
2018-10-09T03:58:11.448Z,1021.4
2018-10-09T03:59:21.271Z,1021.44
2018-10-09T04:00:30.835Z,1021.43
2018-10-09T04:01:40.669Z,1021.43
2018-10-09T04:02:50.498Z,1021.41
2018-10-09T04:04:00.590Z,1021.42
2018-10-09T04:05:10.679Z,1021.41
2018-10-09T04:06:20.498Z,1021.38
2018-10-09T04:07:30.319Z,1021.43
2018-10-09T04:08:39.880Z,1021.45
2018-10-09T04:09:49.700Z,1021.45
2018-10-09T04:10:59.790Z,1021.4
2018-10-09T04:12:09.619Z,1021.41
2018-10-09T04:13:19.192Z,1021.42
2018-10-09T04:14:29.014Z,1021.41
2018-10-09T04:15:39.104Z,1021.36
2018-10-09T04:16:48.660Z,1021.35
2018-10-09T04:17:58.491Z,1021.32
2018-10-09T04:19:08.052Z,1021.31
2018-10-09T04:20:17.929Z,1021.31
2018-10-09T04:21:27.488Z,1021.31
2018-10-09T04:22:36.777Z,1021.34
2018-10-09T04:23:46.601Z,1021.32
2018-10-09T04:24:56.702Z,1021.26
2018-10-09T04:26:06.535Z,1021.23
2018-10-09T04:27:16.093Z,1021.23
2018-10-09T04:28:25.653Z,1021.19
2018-10-09T04:29:35.626Z,1021.16
2018-10-09T04:30:45.773Z,1021.13
2018-10-09T04:31:55.872Z,1021.12
2018-10-09T04:33:05.700Z,1021.15
2018-10-09T04:34:15.520Z,1021.15
2018-10-09T04:35:25.360Z,1021.16
2018-10-09T04:36:35.750Z,1021.15
2018-10-09T04:37:45.041Z,1021.14
2018-10-09T04:38:54.639Z,1021.21
2018-10-09T04:40:04.725Z,1021.25
2018-10-09T04:41:14.827Z,1021.29
2018-10-09T04:42:24.920Z,1021.32
2018-10-09T04:43:34.483Z,1021.3
2018-10-09T04:44:44.043Z,1021.26
2018-10-09T04:45:53.871Z,1021.21
2018-10-09T04:47:03.689Z,1021.22
2018-10-09T04:48:13.786Z,1021.27
2018-10-09T04:49:23.608Z,1021.31
2018-10-09T04:50:33.432Z,1021.32
2018-10-09T04:51:42.984Z,1021.27
2018-10-09T04:52:52.867Z,1021.21
2018-10-09T04:54:03.246Z,1021.18
2018-10-09T04:55:12.801Z,1021.31
2018-10-09T04:56:22.897Z,1021.38
2018-10-09T04:57:32.455Z,1021.39
2018-10-09T04:58:42.551Z,1021.41
2018-10-09T04:59:52.647Z,1021.3
2018-10-09T05:01:02.519Z,1021.27
2018-10-09T05:02:12.075Z,1021.23
2018-10-09T05:03:21.649Z,1021.25
2018-10-09T05:04:31.484Z,1021.25
2018-10-09T05:05:41.303Z,1021.26
2018-10-09T05:06:50.587Z,1021.28
2018-10-09T05:08:00.411Z,1021.3
2018-10-09T05:09:09.971Z,1021.32
2018-10-09T05:10:19.519Z,1021.27
2018-10-09T05:11:29.338Z,1021.27
2018-10-09T05:12:39.204Z,1021.31
2018-10-09T05:13:48.759Z,1021.27
2018-10-09T05:14:58.579Z,1021.2
2018-10-09T05:16:08.140Z,1021.21
2018-10-09T05:17:17.965Z,1021.12
2018-10-09T05:18:27.521Z,1021.08
2018-10-09T05:19:37.075Z,1021.07
2018-10-09T05:20:46.630Z,1021.08
2018-10-09T05:21:56.459Z,1021.11
2018-10-09T05:23:06.319Z,1021.13
2018-10-09T05:24:16.761Z,1021.09
2018-10-09T05:25:26.050Z,1021.17
2018-10-09T05:26:36.155Z,1021.16
2018-10-09T05:27:46.245Z,1021.15
2018-10-09T05:28:56.065Z,1021.2
2018-10-09T05:30:05.886Z,1021.2
2018-10-09T05:31:15.519Z,1021.24
2018-10-09T05:32:26.186Z,1021.21
2018-10-09T05:33:35.746Z,1021.31
2018-10-09T05:34:45.299Z,1021.28
2018-10-09T05:35:54.863Z,1021.29
2018-10-09T05:37:04.415Z,1021.35
2018-10-09T05:38:14.233Z,1021.4
2018-10-09T05:39:23.790Z,1021.44
2018-10-09T05:40:33.347Z,1021.48
2018-10-09T05:41:42.958Z,1021.47
2018-10-09T05:42:52.244Z,1021.49
2018-10-09T05:44:01.813Z,1021.43
2018-10-09T05:45:12.127Z,1021.45
2018-10-09T05:46:22.229Z,1021.46
2018-10-09T05:47:32.052Z,1021.5
2018-10-09T05:48:41.871Z,1021.51
2018-10-09T05:49:51.424Z,1021.49
2018-10-09T05:51:01.239Z,1021.46
2018-10-09T05:52:10.789Z,1021.49
2018-10-09T05:53:20.342Z,1021.51
2018-10-09T05:54:29.904Z,1021.53
2018-10-09T05:55:39.734Z,1021.56
2018-10-09T05:56:49.557Z,1021.58
2018-10-09T05:57:59.184Z,1021.56
2018-10-09T05:59:09.866Z,1021.53
2018-10-09T06:00:19.956Z,1021.54
2018-10-09T06:01:29.515Z,1021.53
2018-10-09T06:02:39.074Z,1021.54
2018-10-09T06:03:48.630Z,1021.57
2018-10-09T06:04:58.772Z,1021.62
2018-10-09T06:06:08.595Z,1021.65
2018-10-09T06:07:18.422Z,1021.65
2018-10-09T06:08:27.699Z,1021.68
2018-10-09T06:09:37.577Z,1021.68
2018-10-09T06:10:47.671Z,1021.69
2018-10-09T06:11:57.507Z,1021.68
2018-10-09T06:13:07.334Z,1021.68
2018-10-09T06:14:17.154Z,1021.72
2018-10-09T06:15:27.285Z,1021.72
2018-10-09T06:16:37.933Z,1021.7
2018-10-09T06:17:47.750Z,1021.7
2018-10-09T06:18:57.572Z,1021.66
2018-10-09T06:20:07.664Z,1021.68
2018-10-09T06:21:17.762Z,1021.59
2018-10-09T06:22:27.912Z,1021.6
2018-10-09T06:23:37.483Z,1021.6
2018-10-09T06:24:46.773Z,1021.64
2018-10-09T06:25:56.329Z,1021.68
2018-10-09T06:27:06.158Z,1021.65
2018-10-09T06:28:16.025Z,1021.67
2018-10-09T06:29:26.680Z,1021.69
2018-10-09T06:30:36.783Z,1021.74
2018-10-09T06:31:46.343Z,1021.8
2018-10-09T06:32:55.632Z,1021.87
2018-10-09T06:34:05.870Z,1021.94
2018-10-09T06:35:15.197Z,1021.92
2018-10-09T06:36:24.755Z,1021.9
2018-10-09T06:37:34.035Z,1021.9
2018-10-09T06:38:43.855Z,1021.95
2018-10-09T06:39:53.733Z,1021.96
2018-10-09T06:41:03.575Z,1022.01
2018-10-09T06:42:13.692Z,1022.02
2018-10-09T06:43:23.783Z,1022.03
2018-10-09T06:44:33.340Z,1022.04
2018-10-09T06:45:43.564Z,1022.08
2018-10-09T06:46:52.850Z,1022.13
2018-10-09T06:48:02.672Z,1022.16
2018-10-09T06:49:12.254Z,1022.21
2018-10-09T06:50:22.366Z,1022.23
2018-10-09T06:51:32.251Z,1022.19
2018-10-09T06:52:41.539Z,1022.18
2018-10-09T06:53:51.930Z,1022.13
2018-10-09T06:55:02.975Z,1022.16
2018-10-09T06:56:12.268Z,1022.12
2018-10-09T06:57:22.088Z,1022.1
2018-10-09T06:58:32.186Z,1022.1
2018-10-09T06:59:42.299Z,1022.03
2018-10-09T07:00:52.132Z,1022.08
2018-10-09T07:02:01.427Z,1022.15
2018-10-09T07:03:11.002Z,1022.17
2018-10-09T07:04:21.104Z,1022.18
2018-10-09T07:05:30.675Z,1022.22
2018-10-09T07:06:39.974Z,1022.19
2018-10-09T07:07:50.091Z,1022.17
2018-10-09T07:08:59.976Z,1022.15
2018-10-09T07:10:09.817Z,1022.15
2018-10-09T07:11:19.778Z,1022.16
2018-10-09T07:12:30.134Z,1022.18
2018-10-09T07:13:39.973Z,1022.19
2018-10-09T07:14:49.808Z,1022.23
2018-10-09T07:15:59.941Z,1022.23
2018-10-09T07:17:09.001Z,1022.2
2018-10-09T07:18:18.708Z,1022.19
2018-10-09T07:19:28.814Z,1022.16
2018-10-09T07:20:38.929Z,1022.18
2018-10-09T07:21:48.507Z,1022.18
2018-10-09T07:22:58.351Z,1022.21
2018-10-09T07:24:08.195Z,1022.25
2018-10-09T07:25:17.762Z,1022.31
2018-10-09T07:26:27.878Z,1022.34
2018-10-09T07:27:37.994Z,1022.37
2018-10-09T07:28:47.998Z,1022.39
2018-10-09T07:29:57.571Z,1022.5
2018-10-09T07:31:07.408Z,1022.52
2018-10-09T07:32:17.299Z,1022.59
2018-10-09T07:33:26.865Z,1022.62
2018-10-09T07:34:36.206Z,1022.53
2018-10-09T07:35:46.044Z,1022.56
2018-10-09T07:36:56.162Z,1022.56
2018-10-09T07:38:06.273Z,1022.62
2018-10-09T07:39:15.853Z,1022.55
2018-10-09T07:40:25.695Z,1022.63
2018-10-09T07:41:35.548Z,1022.62
2018-10-09T07:42:45.112Z,1022.66
2018-10-09T07:43:55.040Z,1022.64
2018-10-09T07:45:05.829Z,1022.71
2018-10-09T07:46:15.672Z,1022.64
2018-10-09T07:47:25.800Z,1022.66
2018-10-09T07:48:35.649Z,1022.68
2018-10-09T07:49:44.953Z,1022.7
2018-10-09T07:50:54.516Z,1022.74
2018-10-09T07:52:04.621Z,1022.73
2018-10-09T07:53:14.463Z,1022.76
2018-10-09T07:54:24.595Z,1022.72
2018-10-09T07:55:33.889Z,1022.79
2018-10-09T07:56:42.923Z,1022.79
2018-10-09T07:57:52.821Z,1022.8
2018-10-09T07:59:02.395Z,1022.8
2018-10-09T08:00:11.695Z,1022.77
2018-10-09T08:01:21.816Z,1022.74
2018-10-09T08:02:31.116Z,1022.73
2018-10-09T08:03:40.417Z,1022.71
2018-10-09T08:04:50.042Z,1022.74
2018-10-09T08:06:00.441Z,1022.72
2018-10-09T08:07:10.012Z,1022.76
2018-10-09T08:08:19.591Z,1022.83
2018-10-09T08:09:29.156Z,1022.81
2018-10-09T08:10:38.885Z,1022.89
2018-10-09T08:11:48.833Z,1022.86
2018-10-09T08:12:58.407Z,1022.85
2018-10-09T08:14:07.972Z,1022.85
2018-10-09T08:15:18.072Z,1022.87
2018-10-09T08:16:28.066Z,1022.87
2018-10-09T08:17:37.692Z,1022.85
2018-10-09T08:18:47.546Z,1022.84
2018-10-09T08:19:57.123Z,1022.83
2018-10-09T08:21:06.961Z,1022.84
2018-10-09T08:22:17.181Z,1022.9
2018-10-09T08:23:27.869Z,1022.89
2018-10-09T08:24:37.441Z,1022.89
2018-10-09T08:25:47.568Z,1022.88
2018-10-09T08:26:57.411Z,1022.91
2018-10-09T08:28:07.061Z,1022.88
2018-10-09T08:29:16.511Z,1022.9
2018-10-09T08:30:26.094Z,1022.89
2018-10-09T08:31:35.942Z,1022.92
2018-10-09T08:32:45.291Z,1022.9
2018-10-09T08:33:54.858Z,1022.91
2018-10-09T08:35:04.426Z,1022.86
2018-10-09T08:36:14.009Z,1022.85
2018-10-09T08:37:24.118Z,1022.77
2018-10-09T08:38:33.521Z,1022.78
2018-10-09T08:39:43.594Z,1022.78
2018-10-09T08:40:53.435Z,1022.69
2018-10-09T08:42:03.005Z,1022.74
2018-10-09T08:43:12.137Z,1022.72
2018-10-09T08:44:21.851Z,1022.71
2018-10-09T08:45:31.222Z,1022.64
2018-10-09T08:46:41.526Z,1022.68
2018-10-09T08:47:51.482Z,1022.71
2018-10-09T08:49:01.338Z,1022.71
2018-10-09T08:50:11.460Z,1022.71
2018-10-09T08:51:21.112Z,1022.71
2018-10-09T08:52:31.061Z,1022.72
2018-10-09T08:53:41.205Z,1022.72
2018-10-09T08:54:51.333Z,1022.73
2018-10-09T08:56:01.364Z,1022.73
2018-10-09T08:57:11.010Z,1022.75
2018-10-09T08:58:21.534Z,1022.73
2018-10-09T08:59:31.128Z,1022.73
2018-10-09T09:00:40.776Z,1022.72
2018-10-09T09:01:51.013Z,1022.78
2018-10-09T09:03:00.324Z,1022.76
2018-10-09T09:04:10.209Z,1022.74
2018-10-09T09:05:19.909Z,1022.75
2018-10-09T09:06:29.728Z,1022.78
2018-10-09T09:07:39.029Z,1022.78
2018-10-09T09:08:49.182Z,1022.73
2018-10-09T09:09:58.676Z,1022.76
2018-10-09T09:11:08.662Z,1022.72
2018-10-09T09:12:18.156Z,1022.67
2018-10-09T09:13:27.939Z,1022.69
2018-10-09T09:14:38.176Z,1022.66
2018-10-09T09:15:48.910Z,1022.69
2018-10-09T09:16:59.730Z,1022.71
2018-10-09T09:18:09.924Z,1022.73
2018-10-09T09:19:19.289Z,1022.74
2018-10-09T09:20:29.164Z,1022.73
2018-10-09T09:21:38.963Z,1022.71
2018-10-09T09:22:48.880Z,1022.71
2018-10-09T09:23:59.325Z,1022.71
2018-10-09T09:25:08.677Z,1022.74
2018-10-09T09:26:18.663Z,1022.71
2018-10-09T09:27:28.159Z,1022.64
2018-10-09T09:28:38.428Z,1022.67
2018-10-09T09:29:48.267Z,1022.65
2018-10-09T09:30:57.884Z,1022.69
2018-10-09T09:32:08.000Z,1022.66
2018-10-09T09:33:18.250Z,1022.77
2018-10-09T09:34:28.129Z,1022.77
2018-10-09T09:35:37.971Z,1022.72
2018-10-09T09:36:47.835Z,1022.75
2018-10-09T09:37:57.869Z,1022.77
2018-10-09T09:39:08.155Z,1022.78
2018-10-09T09:40:17.665Z,1022.77
2018-10-09T09:41:27.550Z,1022.76
2018-10-09T09:42:37.663Z,1022.78
2018-10-09T09:43:47.508Z,1022.81
2018-10-09T09:44:57.078Z,1022.76
2018-10-09T09:46:06.986Z,1022.78
2018-10-09T09:47:17.421Z,1022.72
2018-10-09T09:48:27.265Z,1022.73
2018-10-09T09:49:37.107Z,1022.7
2018-10-09T09:50:46.949Z,1022.66
2018-10-09T09:51:56.821Z,1022.68
2018-10-09T09:53:07.373Z,1022.7
2018-10-09T09:54:17.221Z,1022.68
2018-10-09T09:55:27.061Z,1022.7
2018-10-09T09:56:37.171Z,1022.77
2018-10-09T09:57:47.085Z,1022.75
2018-10-09T09:58:57.768Z,1022.76
2018-10-09T10:00:08.562Z,1022.76
2018-10-09T10:01:17.864Z,1022.76
2018-10-09T10:02:27.709Z,1022.78
2018-10-09T10:03:37.341Z,1022.78
2018-10-09T10:04:47.537Z,1022.78
2018-10-09T10:05:57.653Z,1022.77
2018-10-09T10:07:06.957Z,1022.81
2018-10-09T10:08:17.125Z,1022.78
2018-10-09T10:09:27.029Z,1022.79
2018-10-09T10:10:36.949Z,1022.73
2018-10-09T10:11:46.791Z,1022.72
2018-10-09T10:12:56.631Z,1022.69
2018-10-09T10:14:06.491Z,1022.67
2018-10-09T10:15:16.335Z,1022.65
2018-10-09T10:16:26.174Z,1022.65
2018-10-09T10:17:36.284Z,1022.7
2018-10-09T10:18:45.858Z,1022.75
2018-10-09T10:19:55.702Z,1022.69
2018-10-09T10:21:05.549Z,1022.7
2018-10-09T10:22:15.767Z,1022.72
2018-10-09T10:23:25.338Z,1022.72
2018-10-09T10:24:35.448Z,1022.69
2018-10-09T10:25:45.559Z,1022.76
2018-10-09T10:26:55.404Z,1022.71
2018-10-09T10:28:04.705Z,1022.72
2018-10-09T10:29:14.371Z,1022.71
2018-10-09T10:30:24.319Z,1022.68
2018-10-09T10:31:34.431Z,1022.69
2018-10-09T10:32:44.666Z,1022.66
2018-10-09T10:33:54.513Z,1022.67
2018-10-09T10:35:04.083Z,1022.71
2018-10-09T10:36:13.659Z,1022.66
2018-10-09T10:37:23.784Z,1022.71
2018-10-09T10:38:33.355Z,1022.69
2018-10-09T10:39:43.470Z,1022.72
2018-10-09T10:40:53.394Z,1022.75
2018-10-09T10:42:03.315Z,1022.74
2018-10-09T10:43:13.855Z,1022.72
2018-10-09T10:44:23.715Z,1022.7
2018-10-09T10:45:33.291Z,1022.64
2018-10-09T10:46:42.644Z,1022.68
2018-10-09T10:47:52.814Z,1022.7
2018-10-09T10:49:02.780Z,1022.68
2018-10-09T10:50:13.462Z,1022.68
2018-10-09T10:51:23.042Z,1022.67
2018-10-09T10:52:32.392Z,1022.75
2018-10-09T10:53:41.424Z,1022.69
2018-10-09T10:54:51.584Z,1022.66
2018-10-09T10:56:02.143Z,1022.7
2018-10-09T10:57:11.712Z,1022.74
2018-10-09T10:58:21.829Z,1022.69
2018-10-09T10:59:31.143Z,1022.7
2018-10-09T11:00:40.445Z,1022.65
2018-10-09T11:01:50.462Z,1022.64
2018-10-09T11:03:00.724Z,1022.64
2018-10-09T11:04:10.295Z,1022.63
2018-10-09T11:05:19.326Z,1022.67
2018-10-09T11:06:28.897Z,1022.66
2018-10-09T11:07:38.472Z,1022.62
2018-10-09T11:08:47.834Z,1022.57
2018-10-09T11:09:57.406Z,1022.63
2018-10-09T11:11:07.257Z,1022.62
2018-10-09T11:12:17.372Z,1022.57
2018-10-09T11:13:27.489Z,1022.57
2018-10-09T11:14:37.097Z,1022.57
2018-10-09T11:15:47.180Z,1022.5
2018-10-09T11:16:56.753Z,1022.58
2018-10-09T11:18:06.339Z,1022.53
2018-10-09T11:19:15.918Z,1022.55
2018-10-09T11:20:25.225Z,1022.54
2018-10-09T11:21:35.152Z,1022.55
2018-10-09T11:22:46.046Z,1022.54
2018-10-09T11:23:56.176Z,1022.48
2018-10-09T11:25:06.020Z,1022.53
2018-10-09T11:26:15.322Z,1022.45
2018-10-09T11:27:24.908Z,1022.47
2018-10-09T11:28:33.667Z,1022.55
2018-10-09T11:29:43.526Z,1022.52
2018-10-09T11:30:52.831Z,1022.52
2018-10-09T11:32:02.408Z,1022.49
2018-10-09T11:33:11.713Z,1022.54
2018-10-09T11:34:21.553Z,1022.43
2018-10-09T11:35:31.512Z,1022.45
2018-10-09T11:36:41.622Z,1022.4
2018-10-09T11:37:51.740Z,1022.4
2018-10-09T11:39:01.864Z,1022.39
2018-10-09T11:40:11.440Z,1022.34
2018-10-09T11:41:21.296Z,1022.33
2018-10-09T11:42:31.410Z,1022.33
2018-10-09T11:43:41.106Z,1022.3
2018-10-09T11:44:51.227Z,1022.36
2018-10-09T11:46:01.354Z,1022.35
2018-10-09T11:47:11.205Z,1022.39
2018-10-09T11:48:20.781Z,1022.32
2018-10-09T11:49:30.441Z,1022.34
2018-10-09T11:50:40.285Z,1022.31
2018-10-09T11:51:50.294Z,1022.28
2018-10-09T11:53:00.461Z,1022.31
2018-10-09T11:54:10.581Z,1022.28
2018-10-09T11:55:20.198Z,1022.21
2018-10-09T11:56:29.776Z,1022.23
2018-10-09T11:57:39.667Z,1022.25
2018-10-09T11:58:48.999Z,1022.27
2018-10-09T11:59:59.367Z,1022.22
2018-10-09T12:01:09.214Z,1022.27
2018-10-09T12:02:19.334Z,1022.24
2018-10-09T12:03:29.180Z,1022.17
2018-10-09T12:04:39.029Z,1022.21
2018-10-09T12:05:48.955Z,1022.16
2018-10-09T12:06:58.538Z,1022.18
2018-10-09T12:08:08.448Z,1022.12
2018-10-09T12:09:18.630Z,1022.12
2018-10-09T12:10:28.210Z,1022.14
2018-10-09T12:11:37.822Z,1022.12
2018-10-09T12:12:47.671Z,1022.12
2018-10-09T12:13:57.240Z,1022.16
2018-10-09T12:15:06.829Z,1022.15
2018-10-09T12:16:16.944Z,1022.16
2018-10-09T12:17:26.798Z,1022.19
2018-10-09T12:18:36.094Z,1022.15
2018-10-09T12:19:45.672Z,1022.16
2018-10-09T12:20:55.575Z,1022.18
2018-10-09T12:22:05.424Z,1022.14
2018-10-09T12:23:15.553Z,1022.13
2018-10-09T12:24:25.673Z,1022.11
2018-10-09T12:25:35.251Z,1022.11
2018-10-09T12:26:44.825Z,1022.12
2018-10-09T12:27:54.742Z,1022.06
2018-10-09T12:29:04.319Z,1022.04
2018-10-09T12:30:13.904Z,1022.09
2018-10-09T12:31:23.488Z,1022.07
2018-10-09T12:32:33.331Z,1022.04
2018-10-09T12:33:42.915Z,1022.08
2018-10-09T12:34:53.036Z,1022.02
2018-10-09T12:36:02.895Z,1022.03
2018-10-09T12:37:13.012Z,1022.07
2018-10-09T12:38:22.638Z,1022.06
2018-10-09T12:39:32.968Z,1022.01
2018-10-09T12:40:42.822Z,1022.01
2018-10-09T12:41:52.398Z,1022.05
2018-10-09T12:43:02.527Z,1022.01
2018-10-09T12:44:11.861Z,1021.99
2018-10-09T12:45:22.166Z,1021.99
2018-10-09T12:46:31.752Z,1022.03
2018-10-09T12:47:41.601Z,1022
2018-10-09T12:48:50.911Z,1022
2018-10-09T12:50:00.321Z,1021.97
2018-10-09T12:51:10.162Z,1022.03
2018-10-09T12:52:19.463Z,1022
2018-10-09T12:53:29.579Z,1021.98
2018-10-09T12:54:39.465Z,1021.97
2018-10-09T12:55:49.043Z,1021.93
2018-10-09T12:56:59.199Z,1021.9
2018-10-09T12:58:09.442Z,1021.88
2018-10-09T12:59:19.013Z,1021.86
2018-10-09T13:00:28.858Z,1021.83
2018-10-09T13:01:37.893Z,1021.83
2018-10-09T13:02:47.747Z,1021.82
2018-10-09T13:03:57.425Z,1021.81
2018-10-09T13:05:07.000Z,1021.8
2018-10-09T13:06:17.123Z,1021.77
2018-10-09T13:07:27.288Z,1021.77
2018-10-09T13:08:37.133Z,1021.76
2018-10-09T13:09:46.710Z,1021.71
2018-10-09T13:10:56.596Z,1021.7
2018-10-09T13:12:06.448Z,1021.72
2018-10-09T13:13:16.297Z,1021.7
2018-10-09T13:14:26.142Z,1021.69
2018-10-09T13:15:35.988Z,1021.68
2018-10-09T13:16:45.571Z,1021.68
2018-10-09T13:17:54.927Z,1021.64
2018-10-09T13:19:04.283Z,1021.64
2018-10-09T13:20:14.128Z,1021.62
2018-10-09T13:21:24.004Z,1021.64
2018-10-09T13:22:34.568Z,1021.65
2018-10-09T13:23:44.414Z,1021.59
2018-10-09T13:24:54.577Z,1021.63
2018-10-09T13:26:04.155Z,1021.61
2018-10-09T13:27:14.092Z,1021.63
2018-10-09T13:28:24.559Z,1021.65
2018-10-09T13:29:34.673Z,1021.59
2018-10-09T13:30:44.887Z,1021.56
2018-10-09T13:31:55.401Z,1021.56
2018-10-09T13:33:04.975Z,1021.58
2018-10-09T13:34:15.165Z,1021.57
2018-10-09T13:35:24.746Z,1021.63
2018-10-09T13:36:34.099Z,1021.63
2018-10-09T13:37:43.682Z,1021.64
2018-10-09T13:38:53.254Z,1021.65
2018-10-09T13:40:02.834Z,1021.61
2018-10-09T13:41:12.470Z,1021.64
2018-10-09T13:42:22.800Z,1021.61
2018-10-09T13:43:32.383Z,1021.62
2018-10-09T13:44:42.227Z,1021.65
2018-10-09T13:45:50.994Z,1021.64
2018-10-09T13:47:00.846Z,1021.62
2018-10-09T13:48:10.336Z,1021.57
2018-10-09T13:49:19.914Z,1021.62
2018-10-09T13:50:29.823Z,1021.68
2018-10-09T13:51:38.985Z,1021.66
2018-10-09T13:52:48.565Z,1021.68
2018-10-09T13:53:58.409Z,1021.71
2018-10-09T13:55:08.573Z,1021.7
2018-10-09T13:56:19.354Z,1021.72
2018-10-09T13:57:28.940Z,1021.69
2018-10-09T13:58:38.789Z,1021.74
2018-10-09T13:59:48.905Z,1021.69
2018-10-09T14:00:58.216Z,1021.71
2018-10-09T14:02:08.067Z,1021.67
2018-10-09T14:03:17.914Z,1021.65
2018-10-09T14:04:28.038Z,1021.63
2018-10-09T14:05:38.200Z,1021.61
2018-10-09T14:06:47.780Z,1021.66
2018-10-09T14:07:57.856Z,1021.62